Time;durP1;ratioP1;P1;durP2;ratioP2;P2;SDS_P1;SDS_P2;PMS_P1;PMS_P2;Temp;Humidity;BMP_temperature;BMP_pressure;BME280_temperature;BME280_humidity;BME280_pressure;Samples;Min_cycle;Max_cycle;Signal;HPM_P1;HPM_P2
2023/05/23 00:01:39;;;;;;;27.47;10.33;;;13.90;99.90;;;;;;5073405;28;20231;-87
2023/05/23 00:04:07;;;;;;;22.60;10.37;;;13.90;99.90;;;;;;5073824;28;20193;-82
2023/05/23 00:06:34;;;;;;;23.00;10.00;;;13.90;99.90;;;;;;5073613;28;20274;-81
2023/05/23 00:09:03;;;;;;;21.53;9.33;;;13.90;99.90;;;;;;5064581;28;20208;-80
2023/05/23 00:11:30;;;;;;;24.70;9.33;;;13.90;99.90;;;;;;5052893;28;20269;-83
2023/05/23 00:13:59;;;;;;;31.07;10.47;;;13.90;99.90;;;;;;5068321;28;20221;-87
2023/05/23 00:16:26;;;;;;;22.40;9.70;;;13.90;99.90;;;;;;5073275;28;20308;-82
2023/05/23 00:18:56;;;;;;;25.50;9.13;;;13.90;99.90;;;;;;5065911;28;20632;-86
2023/05/23 00:21:23;;;;;;;23.67;8.70;;;13.80;99.90;;;;;;5052993;28;20292;-82
2023/05/23 00:23:50;;;;;;;23.57;7.93;;;13.80;99.90;;;;;;5052498;28;20205;-79
2023/05/23 00:26:18;;;;;;;22.17;8.47;;;13.90;99.90;;;;;;5053400;28;20286;-84
2023/05/23 00:28:45;;;;;;;22.47;7.53;;;13.80;99.90;;;;;;5053225;28;20194;-86
2023/05/23 00:31:12;;;;;;;23.57;7.93;;;13.80;99.90;;;;;;5053317;28;20273;-81
2023/05/23 00:33:39;;;;;;;23.67;8.37;;;13.90;99.90;;;;;;5053102;28;20208;-81
2023/05/23 00:36:06;;;;;;;22.87;8.70;;;13.90;99.90;;;;;;5053479;28;20206;-82
2023/05/23 00:38:33;;;;;;;19.70;8.47;;;13.90;99.90;;;;;;5062128;28;20212;-80
2023/05/23 00:41:00;;;;;;;21.30;8.67;;;13.90;99.90;;;;;;5073101;28;20598;-84
2023/05/23 00:43:28;;;;;;;24.13;9.90;;;13.90;99.90;;;;;;5073026;28;20613;-85
2023/05/23 00:45:55;;;;;;;26.67;9.53;;;13.80;99.90;;;;;;5072300;28;20576;-85
2023/05/23 00:48:22;;;;;;;17.17;8.73;;;13.80;99.90;;;;;;5073324;28;20232;-83
2023/05/23 00:50:50;;;;;;;23.70;9.83;;;13.80;99.90;;;;;;5073905;28;20497;-85
2023/05/23 00:53:17;;;;;;;22.00;8.77;;;13.80;99.90;;;;;;5065571;28;20289;-83
2023/05/23 00:55:45;;;;;;;18.27;7.83;;;13.80;99.90;;;;;;5053264;28;20261;-85
2023/05/23 00:58:14;;;;;;;18.47;8.03;;;13.80;99.90;;;;;;5053121;28;20228;-81
2023/05/23 01:00:43;;;;;;;19.90;7.43;;;13.80;99.90;;;;;;5052922;28;20210;-84
2023/05/23 01:03:16;;;;;;;18.53;8.07;;;13.80;99.90;;;;;;5052864;28;20668;-85
2023/05/23 01:05:44;;;;;;;15.93;6.57;;;13.80;99.90;;;;;;5053205;28;20501;-83
2023/05/23 01:08:10;;;;;;;20.80;8.10;;;13.80;99.90;;;;;;5052944;28;20606;-83
2023/05/23 01:10:38;;;;;;;14.90;7.50;;;13.80;99.90;;;;;;5053274;28;20204;-82
2023/05/23 01:13:17;;;;;;;16.97;8.27;;;13.70;99.90;;;;;;5053047;28;20198;-83
2023/05/23 01:15:51;;;;;;;25.90;7.60;;;13.70;99.90;;;;;;5054641;28;20198;-81
2023/05/23 01:18:24;;;;;;;23.77;7.40;;;13.60;99.90;;;;;;5073004;28;20217;-83
2023/05/23 01:20:54;;;;;;;19.63;7.93;;;13.70;99.90;;;;;;5072786;28;20229;-82
2023/05/23 01:23:51;;;;;;;19.40;7.53;;;13.60;99.90;;;;;;5072729;28;20242;-82
2023/05/23 01:26:41;;;;;;;21.47;8.53;;;13.70;99.90;;;;;;5066426;28;20206;-82
2023/05/23 01:29:14;;;;;;;20.53;7.23;;;13.70;99.90;;;;;;5053303;28;20189;-83
2023/05/23 01:31:44;;;;;;;16.67;6.73;;;13.70;99.90;;;;;;5052688;28;20246;-85
2023/05/23 01:34:13;;;;;;;20.70;7.40;;;13.70;99.90;;;;;;5052431;28;20194;-85
2023/05/23 01:36:42;;;;;;;21.17;7.63;;;13.70;99.90;;;;;;5053105;28;20214;-85
2023/05/23 01:39:09;;;;;;;18.57;6.90;;;13.70;99.90;;;;;;5073107;28;20295;-81
2023/05/23 01:41:36;;;;;;;16.97;7.30;;;13.70;99.90;;;;;;5072698;28;20200;-84
2023/05/23 01:44:04;;;;;;;24.33;7.03;;;13.60;99.90;;;;;;5072285;28;20200;-84
2023/05/23 01:46:35;;;;;;;22.53;7.57;;;13.60;99.90;;;;;;5053862;28;20281;-84
2023/05/23 01:49:03;;;;;;;18.97;6.13;;;13.60;99.90;;;;;;5052471;28;20285;-83
2023/05/23 01:51:31;;;;;;;23.77;7.47;;;13.60;99.90;;;;;;5052781;28;20317;-83
2023/05/23 01:53:58;;;;;;;16.53;6.40;;;13.60;99.90;;;;;;5053217;28;20197;-89
2023/05/23 01:56:26;;;;;;;16.30;6.77;;;13.60;99.90;;;;;;5066496;28;20201;-82
2023/05/23 01:58:53;;;;;;;19.97;6.57;;;13.60;99.90;;;;;;5075802;28;20593;-81
2023/05/23 02:01:20;;;;;;;19.93;6.43;;;13.60;99.90;;;;;;5076617;28;20217;-86
2023/05/23 02:03:49;;;;;;;20.30;6.60;;;13.60;99.90;;;;;;5060676;28;20202;-81
2023/05/23 02:06:16;;;;;;;20.67;5.97;;;13.60;99.90;;;;;;5055996;28;20192;-81
2023/05/23 02:08:43;;;;;;;15.50;5.73;;;13.60;99.90;;;;;;5060651;28;20205;-81
2023/05/23 02:11:10;;;;;;;14.97;6.30;;;13.60;99.90;;;;;;5075655;28;20192;-83
2023/05/23 02:13:36;;;;;;;11.83;5.00;;;13.70;99.90;;;;;;5075943;28;20199;-83
2023/05/23 02:16:03;;;;;;;16.87;5.80;;;13.60;99.90;;;;;;5075635;28;20212;-82
2023/05/23 02:18:30;;;;;;;17.20;5.50;;;13.60;99.90;;;;;;5070509;28;20826;-82
2023/05/23 02:20:59;;;;;;;16.47;6.37;;;13.60;99.90;;;;;;5055452;28;20208;-82
2023/05/23 02:23:26;;;;;;;10.10;4.77;;;13.60;99.90;;;;;;5054946;28;20198;-82
2023/05/23 02:25:52;;;;;;;18.67;4.87;;;13.50;99.90;;;;;;5055274;28;20595;-83
2023/05/23 02:28:19;;;;;;;17.30;4.73;;;13.50;99.90;;;;;;5055420;28;20621;-83
2023/05/23 02:30:46;;;;;;;13.23;4.67;;;13.50;99.90;;;;;;5055217;28;20204;-84
2023/05/23 02:33:13;;;;;;;15.07;4.90;;;13.40;99.90;;;;;;5055147;28;20308;-83
2023/05/23 02:35:40;;;;;;;16.03;5.20;;;13.40;99.90;;;;;;5055631;28;20252;-85
2023/05/23 02:38:08;;;;;;;11.63;4.40;;;13.40;99.90;;;;;;5055300;28;20309;-83
2023/05/23 02:40:35;;;;;;;10.70;4.90;;;13.40;99.90;;;;;;5055475;28;20198;-86
2023/05/23 02:43:02;;;;;;;11.60;4.10;;;13.30;99.90;;;;;;5055328;28;20293;-81
2023/05/23 02:45:29;;;;;;;14.77;4.70;;;13.30;99.90;;;;;;5055402;28;20252;-84
2023/05/23 02:47:56;;;;;;;12.57;4.37;;;13.30;99.90;;;;;;5055215;28;20594;-82
2023/05/23 02:50:22;;;;;;;12.97;4.17;;;13.20;99.90;;;;;;5055635;28;20205;-84
2023/05/23 02:52:49;;;;;;;10.67;4.07;;;13.20;99.90;;;;;;5055369;28;20240;-86
2023/05/23 02:55:18;;;;;;;20.57;4.63;;;13.20;99.90;;;;;;5055509;28;20563;-83
2023/05/23 02:57:44;;;;;;;16.57;5.07;;;13.20;99.90;;;;;;5072227;28;20836;-85
2023/05/23 03:00:14;;;;;;;11.27;4.10;;;13.20;99.90;;;;;;5075217;28;20197;-83
2023/05/23 03:02:41;;;;;;;11.27;4.60;;;13.20;99.90;;;;;;5057250;28;20232;-84
2023/05/23 03:05:08;;;;;;;11.00;4.33;;;13.10;99.90;;;;;;5074854;28;20198;-83
2023/05/23 03:07:35;;;;;;;14.20;4.40;;;13.10;99.90;;;;;;5074478;28;20598;-82
2023/05/23 03:10:02;;;;;;;13.90;5.33;;;13.10;99.90;;;;;;5066900;28;20229;-83
2023/05/23 03:12:31;;;;;;;11.53;5.10;;;13.10;99.90;;;;;;5054457;28;20202;-84
2023/05/23 03:14:57;;;;;;;9.07;4.63;;;13.10;99.90;;;;;;5054067;28;20209;-83
2023/05/23 03:17:25;;;;;;;9.37;4.20;;;13.10;99.90;;;;;;5054681;28;20233;-81
2023/05/23 03:19:52;;;;;;;15.13;4.97;;;13.00;99.90;;;;;;5054437;28;20234;-80
2023/05/23 03:22:19;;;;;;;13.07;4.57;;;13.00;99.90;;;;;;5055065;28;20202;-82
2023/05/23 03:24:46;;;;;;;11.73;4.43;;;12.90;99.90;;;;;;5054444;28;20202;-82
2023/05/23 03:27:13;;;;;;;13.53;5.00;;;12.90;99.90;;;;;;5054309;28;20558;-86
2023/05/23 03:29:41;;;;;;;13.97;5.70;;;12.90;99.90;;;;;;5054444;28;20218;-80
2023/05/23 03:32:08;;;;;;;11.20;5.23;;;12.90;99.90;;;;;;5054169;28;20309;-84
2023/05/23 03:34:35;;;;;;;9.97;5.40;;;12.90;99.90;;;;;;5053957;28;20227;-82
2023/05/23 03:37:03;;;;;;;17.07;5.47;;;12.90;99.90;;;;;;5054124;28;20202;-86
2023/05/23 03:39:30;;;;;;;14.30;5.93;;;12.90;99.90;;;;;;5054575;28;20228;-84
2023/05/23 03:41:56;;;;;;;19.03;6.30;;;12.80;99.90;;;;;;5054211;28;20221;-84
2023/05/23 03:44:23;;;;;;;19.97;6.30;;;12.80;99.90;;;;;;5054405;28;20260;-84
2023/05/23 03:46:52;;;;;;;14.03;5.43;;;12.70;99.90;;;;;;5054404;28;20213;-86
2023/05/23 03:49:19;;;;;;;20.47;6.87;;;12.70;99.90;;;;;;5053679;28;20246;-87
2023/05/23 03:51:46;;;;;;;13.70;6.30;;;12.70;99.90;;;;;;5053575;28;20198;-82
2023/05/23 03:54:13;;;;;;;22.53;6.07;;;12.70;99.90;;;;;;5060168;28;20284;-86
2023/05/23 03:56:39;;;;;;;18.33;6.77;;;12.70;99.90;;;;;;5073501;28;20240;-85
2023/05/23 03:59:06;;;;;;;12.60;6.03;;;12.60;99.90;;;;;;5074170;28;20228;-82
2023/05/23 04:01:33;;;;;;;17.73;6.27;;;12.60;99.90;;;;;;5067743;28;20651;-82
2023/05/23 04:04:01;;;;;;;12.67;7.03;;;12.70;99.90;;;;;;5053155;28;20202;-82
2023/05/23 04:06:30;;;;;;;18.90;6.50;;;12.70;99.90;;;;;;5053613;28;20651;-83
2023/05/23 04:08:56;;;;;;;15.20;6.80;;;12.60;99.90;;;;;;5053092;28;20252;-83
2023/05/23 04:11:23;;;;;;;18.17;7.00;;;12.70;99.90;;;;;;5069756;28;20205;-84
2023/05/23 04:13:52;;;;;;;19.53;7.03;;;12.70;99.90;;;;;;5072422;28;20276;-82
2023/05/23 04:16:21;;;;;;;19.17;7.20;;;12.70;99.90;;;;;;5072044;28;20201;-84
2023/05/23 04:18:48;;;;;;;19.13;7.40;;;12.80;99.90;;;;;;5075113;28;20231;-84
2023/05/23 04:21:17;;;;;;;15.13;7.00;;;12.80;99.90;;;;;;5055216;28;20209;-81
2023/05/23 04:23:44;;;;;;;17.83;7.30;;;12.80;99.90;;;;;;5053361;28;20284;-84
2023/05/23 04:26:11;;;;;;;23.87;9.00;;;12.80;99.90;;;;;;5053270;28;20194;-80
2023/05/23 04:28:38;;;;;;;18.97;7.90;;;12.70;99.90;;;;;;5053048;28;20202;-83
2023/05/23 04:31:05;;;;;;;16.60;6.83;;;12.60;99.90;;;;;;5053252;28;20509;-86
2023/05/23 04:33:33;;;;;;;18.57;6.40;;;12.50;99.90;;;;;;5053109;28;20209;-81
2023/05/23 04:36:00;;;;;;;15.73;7.87;;;12.50;99.90;;;;;;5053130;28;20287;-80
2023/05/23 04:38:28;;;;;;;18.30;7.37;;;12.40;99.90;;;;;;5053261;28;20321;-84
2023/05/23 04:40:56;;;;;;;15.20;6.80;;;12.30;99.90;;;;;;5053538;28;20319;-82
2023/05/23 04:43:25;;;;;;;16.07;6.40;;;12.30;99.90;;;;;;5053418;28;20241;-81
2023/05/23 04:45:53;;;;;;;14.77;6.07;;;12.30;99.90;;;;;;5053167;28;20247;-87
2023/05/23 04:48:20;;;;;;;14.07;6.57;;;12.30;99.90;;;;;;5053124;28;20193;-87
2023/05/23 04:50:49;;;;;;;15.10;6.47;;;12.30;99.90;;;;;;5054522;28;20198;-90
2023/05/23 04:53:16;;;;;;;17.30;6.67;;;12.40;99.90;;;;;;5053748;28;20247;-85
2023/05/23 04:55:45;;;;;;;15.53;6.53;;;12.50;99.90;;;;;;5054178;28;20212;-86
2023/05/23 04:58:12;;;;;;;13.93;6.20;;;12.50;99.90;;;;;;5053642;28;20277;-89
2023/05/23 05:00:39;;;;;;;16.17;6.77;;;12.50;99.90;;;;;;5054055;28;20201;-84
2023/05/23 05:03:08;;;;;;;19.53;6.23;;;12.50;99.90;;;;;;5053989;28;20225;-83
2023/05/23 05:05:35;;;;;;;13.03;6.00;;;12.50;99.90;;;;;;5052937;28;20198;-87
2023/05/23 05:08:02;;;;;;;13.67;6.27;;;12.50;99.90;;;;;;5053502;28;20197;-83
2023/05/23 05:10:29;;;;;;;10.83;4.83;;;12.50;99.90;;;;;;5054206;28;20296;-83
2023/05/23 05:12:57;;;;;;;9.53;4.97;;;12.60;99.90;;;;;;5053641;28;20186;-84
2023/05/23 05:15:24;;;;;;;10.47;5.07;;;12.60;99.90;;;;;;5053564;28;20609;-80
2023/05/23 05:17:51;;;;;;;9.77;4.40;;;12.60;99.90;;;;;;5071558;28;20580;-86
2023/05/23 05:20:18;;;;;;;9.13;4.10;;;12.50;99.90;;;;;;5073141;28;20531;-86
2023/05/23 05:22:46;;;;;;;9.03;3.73;;;12.60;99.90;;;;;;5073522;28;20544;-83
2023/05/23 05:25:12;;;;;;;9.87;3.20;;;12.60;99.90;;;;;;5068840;28;20610;-82
2023/05/23 05:27:40;;;;;;;7.40;3.07;;;12.60;99.90;;;;;;5052568;28;20606;-83
2023/05/23 05:30:10;;;;;;;7.43;3.70;;;12.60;99.90;;;;;;5053417;28;20206;-86
2023/05/23 05:32:37;;;;;;;13.60;3.37;;;12.50;99.90;;;;;;5056009;28;20228;-82
2023/05/23 05:35:06;;;;;;;10.20;3.77;;;12.50;99.90;;;;;;5056537;28;20383;-86
2023/05/23 05:37:33;;;;;;;10.80;3.00;;;12.50;99.90;;;;;;5057377;28;20279;-85
2023/05/23 05:40:05;;;;;;;11.87;3.10;;;12.50;99.90;;;;;;5064472;28;20201;-81
2023/05/23 05:42:32;;;;;;;11.77;3.63;;;12.50;99.90;;;;;;5077059;28;20684;-83
2023/05/23 05:44:59;;;;;;;7.43;3.23;;;12.50;99.90;;;;;;5076502;28;20544;-82
2023/05/23 05:47:27;;;;;;;15.13;3.67;;;12.50;99.90;;;;;;5075824;28;20201;-86
2023/05/23 05:49:54;;;;;;;18.90;4.03;;;12.50;99.90;;;;;;5076560;28;20211;-85
2023/05/23 05:52:21;;;;;;;14.77;3.20;;;12.50;99.90;;;;;;5073447;28;20198;-87
2023/05/23 05:54:48;;;;;;;11.83;3.33;;;12.50;99.90;;;;;;5055528;28;20198;-85
2023/05/23 05:57:15;;;;;;;15.80;3.47;;;12.40;99.90;;;;;;5056562;28;20216;-84
2023/05/23 05:59:42;;;;;;;11.63;3.00;;;12.40;99.90;;;;;;5056450;28;20218;-83
2023/05/23 06:02:09;;;;;;;12.90;3.77;;;12.40;99.90;;;;;;5060910;28;20222;-83
2023/05/23 06:04:37;;;;;;;11.20;3.37;;;12.40;99.90;;;;;;5076229;28;20284;-85
2023/05/23 06:07:04;;;;;;;14.83;3.23;;;12.50;99.90;;;;;;5076416;28;20189;-87
2023/05/23 06:09:31;;;;;;;19.47;3.40;;;12.60;99.90;;;;;;5071250;28;20216;-83
2023/05/23 06:11:58;;;;;;;15.17;3.77;;;12.90;99.90;;;;;;5056548;28;20236;-83
2023/05/23 06:14:25;;;;;;;14.13;3.57;;;13.20;99.90;;;;;;5070120;28;20201;-80
2023/05/23 06:16:52;;;;;;;13.07;3.03;;;13.50;99.90;;;;;;5075328;28;20201;-85
2023/05/23 06:19:18;;;;;;;13.83;3.87;;;13.80;99.90;;;;;;5076057;28;20224;-89
2023/05/23 06:21:47;;;;;;;19.13;3.70;;;14.10;1.00;;;;;;5056081;28;20214;-83
2023/05/23 06:24:14;;;;;;;10.17;3.47;;;14.20;1.00;;;;;;5054990;28;20577;-86
2023/05/23 06:26:43;;;;;;;16.93;3.63;;;14.40;1.00;;;;;;5056195;28;20289;-83
2023/05/23 06:29:10;;;;;;;16.60;3.33;;;14.60;1.00;;;;;;5055870;28;20197;-82
2023/05/23 06:31:36;;;;;;;15.67;3.63;;;14.80;1.00;;;;;;5055273;28;20237;-82
2023/05/23 06:34:03;;;;;;;18.77;4.00;;;15.10;1.00;;;;;;5056045;28;20205;-83
2023/05/23 06:36:30;;;;;;;21.70;4.30;;;15.10;1.00;;;;;;5055000;28;20209;-82
2023/05/23 06:38:58;;;;;;;15.13;3.37;;;14.90;99.90;;;;;;5055528;28;20271;-87
2023/05/23 06:41:26;;;;;;;18.30;3.60;;;14.70;99.90;;;;;;5067220;28;20288;-79
2023/05/23 06:43:53;;;;;;;16.43;3.37;;;14.80;90.60;;;;;;5074662;28;20485;-84
2023/05/23 06:46:20;;;;;;;15.73;4.70;;;14.90;99.90;;;;;;5055631;28;20213;-82
2023/05/23 06:48:47;;;;;;;10.63;3.37;;;15.00;1.00;;;;;;5066096;28;20199;-84
2023/05/23 06:51:14;;;;;;;13.17;3.67;;;15.10;1.00;;;;;;5068745;28;20263;-84
2023/05/23 06:53:41;;;;;;;22.73;3.97;;;15.10;1.00;;;;;;5058298;28;20744;-87
2023/05/23 06:56:09;;;;;;;23.63;4.30;;;15.10;99.90;;;;;;5057711;28;20213;-83
2023/05/23 06:58:36;;;;;;;17.63;3.67;;;15.10;1.00;;;;;;5055136;28;20210;-83
2023/05/23 07:01:03;;;;;;;16.13;4.20;;;15.20;1.00;;;;;;5056114;28;20194;-84
2023/05/23 07:03:30;;;;;;;18.90;4.53;;;15.20;99.90;;;;;;5058003;28;20199;-82
2023/05/23 07:05:57;;;;;;;14.67;4.23;;;15.00;1.00;;;;;;5064409;28;20194;-84
2023/05/23 07:08:24;;;;;;;16.27;3.97;;;14.90;99.90;;;;;;5063679;28;20202;-83
2023/05/23 07:10:51;;;;;;;16.57;4.03;;;14.90;39.30;;;;;;5059707;28;20211;-81
2023/05/23 07:13:19;;;;;;;16.70;3.53;;;15.20;1.00;;;;;;5055171;28;20208;-84
2023/05/23 07:15:46;;;;;;;17.07;3.97;;;15.50;99.90;;;;;;5065289;28;20197;-85
2023/05/23 07:18:13;;;;;;;18.35;4.20;;;15.70;1.00;;;;;;5064098;28;20197;-81
2023/05/23 07:20:40;;;;;;;10.83;3.47;;;15.70;99.90;;;;;;5059855;28;20593;-81
2023/05/23 07:23:07;;;;;;;20.42;3.85;;;15.90;99.90;;;;;;5063783;28;20201;-85
2023/05/23 07:25:34;;;;;;;16.52;3.88;;;16.10;99.90;;;;;;5071783;28;20372;-82
2023/05/23 07:28:00;;;;;;;10.90;3.03;;;16.40;75.20;;;;;;5061712;28;20284;-79
2023/05/23 07:30:29;;;;;;;13.77;4.03;;;16.60;1.00;;;;;;5054061;28;20297;-81
2023/05/23 07:32:56;;;;;;;16.88;3.88;;;16.60;1.00;;;;;;5054810;28;20236;-84
2023/05/23 07:35:25;;;;;;;14.27;4.03;;;16.60;1.00;;;;;;5041068;28;20205;-85
2023/05/23 07:37:51;;;;;;;18.02;4.80;;;16.50;1.00;;;;;;5046555;28;20210;-80
2023/05/23 07:40:19;;;;;;;14.27;4.00;;;16.30;99.90;;;;;;5052665;28;20221;-82
2023/05/23 07:42:46;;;;;;;16.42;3.70;;;16.10;1.00;;;;;;5052069;28;20205;-86
2023/05/23 07:45:12;;;;;;;15.00;3.92;;;16.30;1.00;;;;;;5056886;28;20613;-87
2023/05/23 07:47:41;;;;;;;15.43;4.03;;;16.50;1.00;;;;;;5038931;28;20270;-82
2023/05/23 07:50:09;;;;;;;15.73;4.25;;;16.70;1.00;;;;;;5034350;28;20282;-84
2023/05/23 07:52:36;;;;;;;18.85;3.55;;;16.60;1.00;;;;;;5034238;28;20201;-84
2023/05/23 07:55:03;;;;;;;13.77;3.50;;;16.70;1.00;;;;;;5033291;28;20230;-87
2023/05/23 07:57:30;;;;;;;14.70;3.92;;;16.70;1.00;;;;;;5050628;28;20201;-84
2023/05/23 07:59:57;;;;;;;10.75;3.67;;;16.70;1.00;;;;;;5053538;28;20276;-85
2023/05/23 08:02:24;;;;;;;10.77;3.78;;;16.20;1.00;;;;;;5035653;28;20230;-82
2023/05/23 08:04:53;;;;;;;12.52;3.33;;;16.10;1.00;;;;;;5034245;28;20712;-81
2023/05/23 08:07:20;;;;;;;18.52;3.80;;;16.30;1.00;;;;;;5034322;28;20202;-80
2023/05/23 08:09:47;;;;;;;16.27;3.20;;;16.70;1.00;;;;;;5034052;28;20543;-80
2023/05/23 08:12:14;;;;;;;20.63;3.75;;;16.90;99.90;;;;;;5033963;28;20290;-81
2023/05/23 08:14:41;;;;;;;20.63;4.28;;;16.80;99.90;;;;;;5036534;28;20217;-83
2023/05/23 08:17:08;;;;;;;14.23;3.63;;;16.80;1.00;;;;;;5054120;28;20293;-87
2023/05/23 08:19:35;;;;;;;17.75;4.95;;;16.80;1.00;;;;;;5045359;28;20284;-83
2023/05/23 08:22:03;;;;;;;16.50;3.70;;;16.90;99.90;;;;;;5033961;28;20253;-91
2023/05/23 08:24:30;;;;;;;10.00;3.50;;;17.00;1.00;;;;;;5034113;28;20594;-83
2023/05/23 08:26:57;;;;;;;14.30;3.78;;;17.20;99.90;;;;;;5033992;28;20199;-84
2023/05/23 08:29:24;;;;;;;12.35;3.65;;;17.40;99.90;;;;;;5033420;28;20199;-80
2023/05/23 08:31:51;;;;;;;15.07;4.13;;;17.50;99.90;;;;;;5041052;28;20234;-85
2023/05/23 08:34:18;;;;;;;14.32;3.95;;;17.30;99.90;;;;;;5053689;28;20198;-81
2023/05/23 08:36:45;;;;;;;18.65;3.67;;;17.00;1.00;;;;;;5053445;28;20277;-82
2023/05/23 08:39:13;;;;;;;14.27;4.20;;;16.80;1.00;;;;;;5056153;28;20248;-87
2023/05/23 08:41:40;;;;;;;11.27;3.08;;;16.60;1.00;;;;;;5067104;28;20211;-83
2023/05/23 08:44:07;;;;;;;13.57;3.45;;;16.40;1.00;;;;;;5072594;28;20287;-84
2023/05/23 08:46:44;;;;;;;16.88;3.30;;;16.20;1.00;;;;;;5073351;28;20202;-83
2023/05/23 08:49:13;;;;;;;15.05;4.13;;;16.20;1.00;;;;;;5073902;28;20207;-81
2023/05/23 08:51:43;;;;;;;13.55;4.07;;;16.20;1.00;;;;;;5072499;28;20657;-85
2023/05/23 08:54:12;;;;;;;15.88;3.53;;;16.50;1.00;;;;;;5073148;28;20189;-88
2023/05/23 08:56:42;;;;;;;12.80;3.30;;;16.50;1.00;;;;;;5070753;28;20204;-84
2023/05/23 08:59:09;;;;;;;13.90;3.63;;;16.20;1.00;;;;;;5071318;28;20224;-82
2023/05/23 09:01:38;;;;;;;15.95;3.55;;;16.20;99.90;;;;;;5072948;28;20221;-83
2023/05/23 09:04:06;;;;;;;16.52;3.53;;;16.40;1.00;;;;;;5071962;28;20213;-81
2023/05/23 09:06:33;;;;;;;12.05;3.47;;;16.50;99.90;;;;;;5054007;28;20213;-83
2023/05/23 09:09:00;;;;;;;17.63;4.20;;;16.70;99.90;;;;;;5056871;28;20205;-84
2023/05/23 09:11:27;;;;;;;13.73;3.58;;;16.80;1.00;;;;;;5056250;28;20225;-83
2023/05/23 09:13:56;;;;;;;12.75;3.63;;;16.70;1.00;;;;;;5054357;28;20206;-88
2023/05/23 09:16:23;;;;;;;16.13;4.20;;;16.70;99.90;;;;;;5056050;28;20209;-91
2023/05/23 09:18:50;;;;;;;17.23;3.60;;;16.40;1.00;;;;;;5068848;28;20205;-81
2023/05/23 09:21:17;;;;;;;18.20;3.80;;;16.30;1.00;;;;;;5075665;28;20208;-84
2023/05/23 09:23:44;;;;;;;12.23;3.90;;;16.10;1.00;;;;;;5073973;28;20207;-80
2023/05/23 09:26:12;;;;;;;15.57;3.63;;;16.20;1.00;;;;;;5069827;28;20609;-80
2023/05/23 09:28:42;;;;;;;17.90;3.55;;;16.30;99.90;;;;;;5055367;28;20657;-80
2023/05/23 09:31:11;;;;;;;12.35;2.80;;;16.00;99.90;;;;;;5068922;28;20219;-85
2023/05/23 09:33:40;;;;;;;15.30;3.67;;;16.10;1.00;;;;;;5070932;28;20480;-84
2023/05/23 09:36:07;;;;;;;11.15;3.28;;;16.10;99.90;;;;;;5075634;28;20208;-81
2023/05/23 09:38:38;;;;;;;15.40;3.70;;;16.10;99.90;;;;;;5073212;28;20233;-87
2023/05/23 09:41:05;;;;;;;17.08;3.70;;;16.20;99.90;;;;;;5068301;28;20217;-82
2023/05/23 09:43:32;;;;;;;14.27;3.60;;;16.10;1.00;;;;;;5075829;28;20652;-82
2023/05/23 09:46:01;;;;;;;11.65;3.17;;;16.20;1.00;;;;;;5069439;28;20206;-81
2023/05/23 09:48:31;;;;;;;12.82;3.33;;;16.20;1.00;;;;;;5065415;28;20501;-85
2023/05/23 09:50:58;;;;;;;13.18;3.78;;;16.00;99.90;;;;;;5075943;28;20206;-85
2023/05/23 09:53:25;;;;;;;15.98;3.90;;;16.00;1.00;;;;;;5073976;28;20225;-85
2023/05/23 09:55:53;;;;;;;14.43;3.25;;;16.20;1.00;;;;;;5075740;28;20231;-84
2023/05/23 09:58:22;;;;;;;19.08;3.45;;;16.20;1.00;;;;;;5074156;28;20299;-83
2023/05/23 10:00:53;;;;;;;126.88;15.07;;;16.20;1.00;;;;;;5075566;28;20793;-85
2023/05/23 10:03:23;;;;;;;22.45;5.30;;;16.20;1.00;;;;;;5073891;28;20221;-83
2023/05/23 10:05:58;;;;;;;20.17;4.35;;;16.10;1.00;;;;;;5070305;28;20292;-84
2023/05/23 10:08:28;;;;;;;18.50;4.03;;;16.20;1.00;;;;;;5075963;28;20212;-84
2023/05/23 10:11:30;;;;;;;28.70;5.65;;;16.40;1.00;;;;;;5074851;28;20209;-83
2023/05/23 10:13:59;;;;;;;22.02;4.75;;;16.60;99.90;;;;;;5038396;28;20209;-79
2023/05/23 10:16:31;;;;;;;26.50;5.27;;;16.90;99.90;;;;;;5064893;28;20292;-83
2023/05/23 10:19:00;;;;;;;13.63;3.58;;;16.90;1.00;;;;;;5060249;28;20224;-84
2023/05/23 10:21:35;;;;;;;15.75;3.28;;;17.20;55.80;;;;;;5075368;28;20526;-83
2023/05/23 10:24:04;;;;;;;10.63;3.30;;;17.30;11.80;;;;;;5055264;28;20286;-81
2023/05/23 10:26:31;;;;;;;12.75;3.13;;;17.20;1.00;;;;;;5061792;28;20216;-84
2023/05/23 10:29:00;;;;;;;33.85;12.40;;;16.70;1.00;;;;;;5075438;28;20587;-83
2023/05/23 10:31:28;;;;;;;14.10;3.72;;;16.30;1.00;;;;;;5075261;28;20276;-82
2023/05/23 10:34:03;;;;;;;12.55;3.33;;;16.30;1.00;;;;;;5070701;28;20198;-82
2023/05/23 10:36:40;;;;;;;11.70;3.08;;;16.30;15.20;;;;;;5055595;28;20201;-85
2023/05/23 10:39:16;;;;;;;11.65;3.70;;;16.50;34.80;;;;;;5056861;28;20280;-81
2023/05/23 10:41:48;;;;;;;20.58;4.20;;;16.60;1.00;;;;;;5055435;28;20208;-85
2023/05/23 10:44:23;;;;;;;12.52;3.10;;;17.00;94.60;;;;;;5055167;28;20289;-84
2023/05/23 10:46:52;;;;;;;9.95;3.28;;;17.20;1.00;;;;;;5055828;28;20288;-83
2023/05/23 10:49:19;;;;;;;11.02;3.17;;;17.30;1.00;;;;;;5055269;28;20198;-81
2023/05/23 10:51:50;;;;;;;11.43;3.00;;;17.10;1.00;;;;;;5055613;28;20206;-82
2023/05/23 10:54:18;;;;;;;13.35;3.15;;;17.00;1.00;;;;;;5055440;28;20198;-82
2023/05/23 10:56:45;;;;;;;11.85;3.55;;;17.50;1.00;;;;;;5055164;28;20256;-82
2023/05/23 10:59:21;;;;;;;11.13;3.45;;;17.70;1.00;;;;;;5054359;28;20205;-85
2023/05/23 11:01:51;;;;;;;11.55;3.35;;;17.50;99.90;;;;;;5065882;28;20214;-85
2023/05/23 11:04:26;;;;;;;11.73;2.88;;;17.50;1.00;;;;;;5069367;28;20197;-85
2023/05/23 11:06:55;;;;;;;8.80;2.40;;;17.60;1.00;;;;;;5073729;28;20492;-80
2023/05/23 11:09:22;;;;;;;19.50;2.95;;;17.60;1.00;;;;;;5072236;28;20255;-85
2023/05/23 11:11:53;;;;;;;11.07;3.22;;;17.70;1.00;;;;;;5073269;28;20193;-82
2023/05/23 11:14:31;;;;;;;9.00;3.50;;;17.90;1.00;;;;;;5071238;28;20265;-81
2023/05/23 11:16:59;;;;;;;13.10;3.20;;;17.90;1.00;;;;;;5073964;28;20268;-82
2023/05/23 11:19:27;;;;;;;13.23;3.42;;;17.90;1.00;;;;;;5067701;28;20806;-84
2023/05/23 11:22:00;;;;;;;12.68;3.10;;;18.00;1.00;;;;;;5054482;28;20664;-82
2023/05/23 11:24:49;;;;;;;11.70;3.42;;;18.00;1.00;;;;;;5059356;28;20205;-81
2023/05/23 11:27:15;;;;;;;10.73;2.80;;;18.10;1.00;;;;;;5057749;28;20218;-84
2023/05/23 11:29:42;;;;;;;17.38;3.42;;;18.20;1.00;;;;;;5054626;28;20625;-85
2023/05/23 11:32:13;;;;;;;13.35;3.03;;;18.00;1.00;;;;;;5054412;28;20283;-83
2023/05/23 11:34:41;;;;;;;18.92;3.97;;;18.10;1.00;;;;;;5054469;28;20205;-84
2023/05/23 11:37:11;;;;;;;14.05;3.65;;;18.10;1.00;;;;;;5040944;28;20555;-84
2023/05/23 11:39:39;;;;;;;10.23;2.88;;;17.80;99.90;;;;;;5072905;28;20293;-83
2023/05/23 11:42:06;;;;;;;11.70;3.38;;;17.70;1.00;;;;;;5057281;28;20216;-80
2023/05/23 11:44:33;;;;;;;12.27;3.38;;;17.90;1.00;;;;;;5054066;28;20208;-84
2023/05/23 11:47:01;;;;;;;14.52;3.55;;;17.90;1.00;;;;;;5073131;28;20357;-90
2023/05/23 11:49:29;;;;;;;11.20;3.20;;;18.00;1.00;;;;;;5073978;28;20202;-84
2023/05/23 11:51:58;;;;;;;17.02;3.67;;;18.10;1.00;;;;;;5054053;28;20610;-82
2023/05/23 11:54:27;;;;;;;10.48;3.33;;;18.20;1.00;;;;;;5053523;28;20285;-82
2023/05/23 11:56:55;;;;;;;14.70;3.65;;;18.30;99.90;;;;;;5054113;28;20784;-85
2023/05/23 11:59:22;;;;;;;11.65;2.72;;;18.40;1.00;;;;;;5053882;28;20675;-86
2023/05/23 12:01:49;;;;;;;85.18;11.02;;;18.40;99.90;;;;;;5054852;28;20234;-87
2023/05/23 12:04:16;;;;;;;40.28;6.72;;;18.40;99.90;;;;;;5055086;28;20229;-90
2023/05/23 12:06:46;;;;;;;18.80;3.90;;;18.40;99.90;;;;;;5061290;28;20227;-91
2023/05/23 12:09:13;;;;;;;8.57;2.60;;;18.20;99.90;;;;;;5074781;28;20228;-87
2023/05/23 12:11:42;;;;;;;8.63;2.53;;;18.20;99.90;;;;;;5074709;28;20373;-91
2023/05/23 12:14:09;;;;;;;11.10;2.97;;;17.90;99.90;;;;;;5072515;28;20279;-89
2023/05/23 12:16:36;;;;;;;15.43;3.78;;;17.90;99.90;;;;;;5054222;28;20252;-88
2023/05/23 12:19:05;;;;;;;10.27;2.80;;;18.10;99.90;;;;;;5054645;28;20206;-90
2023/05/23 12:21:45;;;;;;;11.95;3.78;;;18.00;99.90;;;;;;5053813;28;20309;-90
2023/05/23 12:24:16;;;;;;;11.52;2.92;;;18.20;99.90;;;;;;5057419;28;20250;-88
2023/05/23 12:26:52;;;;;;;14.27;3.40;;;18.30;99.90;;;;;;5074635;28;20201;-84
2023/05/23 12:29:21;;;;;;;12.55;3.50;;;18.10;99.90;;;;;;5073845;28;20189;-88
2023/05/23 12:31:51;;;;;;;15.02;3.60;;;18.20;99.90;;;;;;5063499;28;20266;-93
2023/05/23 12:34:20;;;;;;;12.70;3.67;;;18.20;99.90;;;;;;5054506;28;20507;-87
2023/05/23 12:36:48;;;;;;;11.50;2.50;;;18.50;99.90;;;;;;5054520;28;20200;-88
2023/05/23 12:39:15;;;;;;;13.10;3.30;;;18.70;99.90;;;;;;5054242;28;20209;-83
2023/05/23 12:41:45;;;;;;;9.93;2.97;;;18.70;99.90;;;;;;5073384;28;20507;-91
2023/05/23 12:44:16;;;;;;;12.52;3.38;;;18.60;99.90;;;;;;5074187;28;20201;-89
2023/05/23 12:46:43;;;;;;;12.07;2.67;;;18.60;99.90;;;;;;5067923;28;20681;-84